createdAt,value
2022-10-18T00:04:33.056Z,1.2
2022-10-18T00:09:31.171Z,1.1
2022-10-18T00:14:29.058Z,1.1
2022-10-18T00:19:28.563Z,1.3
2022-10-18T00:24:25.378Z,1.3
2022-10-18T00:29:23.680Z,1.4
2022-10-18T00:34:22.136Z,1.4
2022-10-18T00:39:20.603Z,1.5
2022-10-18T00:44:18.677Z,1.4
2022-10-18T00:49:16.945Z,1.4
2022-10-18T00:54:15.139Z,1.2
2022-10-18T00:59:13.208Z,0.9
2022-10-18T01:04:11.222Z,0.8
2022-10-18T01:09:09.229Z,0.5
2022-10-18T01:14:07.208Z,0.6
2022-10-18T01:19:05.235Z,0.7
2022-10-18T01:24:03.511Z,0.8
2022-10-18T01:29:01.872Z,0.7
2022-10-18T01:33:59.756Z,0.7
2022-10-18T01:38:57.881Z,0.7
2022-10-18T01:43:56.011Z,0.7
2022-10-18T01:48:54.168Z,0.7
2022-10-18T01:53:52.155Z,0.6
2022-10-18T01:58:50.118Z,0.4
2022-10-18T02:03:48.184Z,0.4
2022-10-18T02:08:46.316Z,0.3
2022-10-18T02:13:44.243Z,0.1
2022-10-18T02:18:42.271Z,0.1
2022-10-18T02:23:40.142Z,-0.1
2022-10-18T02:28:38.314Z,-0.2
2022-10-18T02:33:36.407Z,-0.2
2022-10-18T02:38:34.525Z,-0.3
2022-10-18T02:43:32.715Z,-0.3
2022-10-18T02:48:30.776Z,-0.3
2022-10-18T02:53:28.678Z,-0.4
2022-10-18T02:58:26.654Z,-0.3
2022-10-18T03:03:24.654Z,-0.4
2022-10-18T03:08:22.746Z,-0.4
2022-10-18T03:13:20.728Z,-0.5
2022-10-18T03:18:19.082Z,-0.6
2022-10-18T03:23:17.353Z,-0.5
2022-10-18T03:28:15.488Z,-0.7
2022-10-18T03:33:13.603Z,-0.7
2022-10-18T03:38:11.856Z,-0.8
2022-10-18T03:43:09.968Z,-0.8
2022-10-18T03:48:07.959Z,-0.8
2022-10-18T03:53:06.138Z,-0.8
2022-10-18T03:58:04.252Z,-0.9
2022-10-18T04:03:02.514Z,-1
2022-10-18T04:08:00.629Z,-1
2022-10-18T04:12:58.743Z,-1.2
2022-10-18T04:17:56.828Z,-1.3
2022-10-18T04:22:55.195Z,-1.4
2022-10-18T04:27:59.471Z,-1.3
2022-10-18T04:32:51.720Z,-1.1
2022-10-18T04:37:49.928Z,-1
2022-10-18T04:42:48.177Z,-0.9
2022-10-18T04:47:46.346Z,-0.9
2022-10-18T04:52:44.493Z,-0.9
2022-10-18T05:02:42.014Z,-0.6
2022-10-18T05:07:40.392Z,-0.4
2022-10-18T05:12:38.586Z,-0.4
2022-10-18T05:17:36.821Z,-0.2
2022-10-18T05:22:35.176Z,-0.1
2022-10-18T05:27:33.336Z,0.1
2022-10-18T05:32:32.092Z,0.8
2022-10-18T05:37:34.087Z,5.4
2022-10-18T05:42:36.124Z,8.6
2022-10-18T05:47:36.968Z,11.6
2022-10-18T05:52:37.480Z,14.2
2022-10-18T05:57:37.671Z,16.2
2022-10-18T06:02:37.599Z,18.4
2022-10-18T06:07:37.398Z,20
2022-10-18T06:12:37.258Z,21.5
2022-10-18T06:17:37.051Z,23
2022-10-18T06:22:36.276Z,24
2022-10-18T06:27:35.667Z,24.9
2022-10-18T06:32:34.693Z,25.8
2022-10-18T06:37:34.024Z,26.1
2022-10-18T06:42:33.070Z,26.8
2022-10-18T06:47:31.833Z,27.5
2022-10-18T06:52:31.033Z,28.5
2022-10-18T06:57:29.467Z,29.1
2022-10-18T07:02:27.913Z,29.8
2022-10-18T07:07:26.522Z,30.5
2022-10-18T07:12:25.327Z,31
2022-10-18T07:17:23.745Z,31.5
2022-10-18T07:22:22.980Z,31.9
2022-10-18T07:27:20.730Z,32.2
2022-10-18T07:32:19.132Z,32.2
2022-10-18T07:37:17.762Z,32.5
2022-10-18T07:42:16.441Z,32.8
2022-10-18T07:47:14.485Z,33.4
2022-10-18T07:52:13.033Z,33.5
2022-10-18T07:57:11.343Z,33.8
2022-10-18T08:02:09.559Z,34.2
2022-10-18T08:07:08.268Z,34.9
2022-10-18T08:12:06.644Z,34.9
2022-10-18T08:17:05.205Z,34.7
2022-10-18T08:22:03.562Z,35.2
2022-10-18T08:27:02.183Z,35.8
2022-10-18T08:32:00.580Z,35.9
2022-10-18T08:36:58.904Z,36.4
2022-10-18T08:41:57.030Z,36.1
2022-10-18T08:46:55.485Z,36.8
2022-10-18T08:51:54.124Z,37.1
2022-10-18T08:56:52.577Z,37.7
2022-10-18T09:01:51.163Z,37.8
2022-10-18T09:06:49.352Z,37.9
2022-10-18T09:11:47.662Z,38.2
2022-10-18T09:16:45.685Z,38.2
2022-10-18T09:21:44.040Z,38.5
2022-10-18T09:26:42.391Z,39
2022-10-18T09:31:40.815Z,38.9
2022-10-18T09:36:38.963Z,39.1
2022-10-18T09:41:37.213Z,38.5
2022-10-18T09:46:35.155Z,38.3
2022-10-18T09:51:33.543Z,38.6
2022-10-18T09:56:31.838Z,38.7
2022-10-18T10:01:30.382Z,39
2022-10-18T10:06:28.364Z,38.8
2022-10-18T10:11:26.750Z,39.2
2022-10-18T10:16:25.390Z,39.8
2022-10-18T10:21:23.885Z,39.8
2022-10-18T10:26:21.812Z,39.3
2022-10-18T10:31:20.501Z,39.9
2022-10-18T10:36:18.462Z,39.6
2022-10-18T10:41:16.842Z,40.3
2022-10-18T10:46:14.759Z,40.3
2022-10-18T10:51:11.990Z,39.4
2022-10-18T10:56:11.280Z,39
2022-10-18T11:01:09.090Z,38.5
2022-10-18T11:06:05.139Z,37.9
2022-10-18T11:11:02.991Z,38
2022-10-18T11:16:00.766Z,36.7
2022-10-18T11:20:58.033Z,36.4
2022-10-18T11:25:55.144Z,35.7
2022-10-18T11:30:52.643Z,35.4
2022-10-18T11:35:50.352Z,34.9
2022-10-18T11:40:48.304Z,34.6
2022-10-18T11:45:46.369Z,35
2022-10-18T11:50:44.967Z,35.3
2022-10-18T11:55:43.095Z,34.7
2022-10-18T12:00:40.821Z,34.3
2022-10-18T12:05:39.000Z,34.2
2022-10-18T12:10:52.921Z,34.5
2022-10-18T12:15:35.026Z,33.7
2022-10-18T12:20:32.575Z,32.8
2022-10-18T12:25:29.905Z,32.1
2022-10-18T12:30:27.710Z,32.2
2022-10-18T12:35:25.295Z,31.2
2022-10-18T12:40:22.711Z,30.1
2022-10-18T12:45:20.096Z,29
2022-10-18T12:50:17.301Z,27.9
2022-10-18T12:55:15.292Z,25.7
2022-10-18T13:00:10.128Z,23.9
2022-10-18T13:05:12.315Z,22.9
2022-10-18T13:10:04.785Z,22.7
2022-10-18T13:15:21.061Z,23
2022-10-18T13:20:20.862Z,22.2
2022-10-18T13:24:58.550Z,21.3
2022-10-18T13:29:55.403Z,19.8
2022-10-18T13:34:52.657Z,18.8
2022-10-18T13:39:50.367Z,18.4
2022-10-18T13:44:48.128Z,17.9
2022-10-18T13:49:45.969Z,17.3
2022-10-18T13:54:43.754Z,16.9
2022-10-18T13:59:41.841Z,16.5
2022-10-18T14:04:39.649Z,15.9
2022-10-18T14:09:44.302Z,14.9
2022-10-18T14:14:34.950Z,14.5
2022-10-18T14:19:32.822Z,13.8
2022-10-18T14:24:30.492Z,13.6
2022-10-18T14:29:28.142Z,13.2
2022-10-18T14:34:25.909Z,12.7
2022-10-18T14:39:23.547Z,12.4
2022-10-18T14:44:21.292Z,12.1
2022-10-18T14:49:19.379Z,11.8
2022-10-18T14:54:17.598Z,11.7
2022-10-18T14:59:15.935Z,11.4
2022-10-18T15:04:15.115Z,10.9
2022-10-18T15:09:12.963Z,10.8
2022-10-18T15:14:11.027Z,10.6
2022-10-18T15:19:10.096Z,10.4
2022-10-18T15:24:08.190Z,10.1
2022-10-18T15:29:07.082Z,9.9
2022-10-18T15:34:04.121Z,9.5
2022-10-18T15:39:02.326Z,9.3
2022-10-18T15:44:00.234Z,9.3
2022-10-18T15:48:58.097Z,9
2022-10-18T15:53:56.069Z,8.9
2022-10-18T15:58:54.199Z,8.6
2022-10-18T16:03:52.177Z,8.2
2022-10-18T16:08:50.108Z,7.9
2022-10-18T16:13:48.187Z,7.7
2022-10-18T16:18:46.098Z,7.5
2022-10-18T16:23:44.009Z,7.4
2022-10-18T16:28:42.174Z,7.4
2022-10-18T16:33:40.106Z,7.3
2022-10-18T16:38:38.319Z,7.4
2022-10-18T16:43:36.560Z,7.6
2022-10-18T16:48:34.619Z,7.5
2022-10-18T16:53:32.760Z,7.2
2022-10-18T16:58:30.885Z,7.1
2022-10-18T17:03:28.318Z,6.9
2022-10-18T17:08:26.590Z,6.9
2022-10-18T17:13:27.489Z,7
2022-10-18T17:18:25.649Z,7.4
2022-10-18T17:23:24.001Z,7.6
2022-10-18T17:28:22.376Z,7.6
2022-10-18T17:33:20.721Z,7.5
2022-10-18T17:38:19.046Z,7.5
2022-10-18T17:43:17.641Z,7.4
2022-10-18T17:48:16.090Z,7.5
2022-10-18T17:53:14.569Z,7.7
2022-10-18T17:58:13.142Z,8.2
2022-10-18T18:03:12.122Z,8.7
2022-10-18T18:08:10.718Z,9
2022-10-18T18:13:09.207Z,8.7
2022-10-18T18:18:07.277Z,8.2
2022-10-18T18:23:04.780Z,7.4
2022-10-18T18:28:05.057Z,6.8
2022-10-18T18:33:00.459Z,6.4
2022-10-18T18:37:58.509Z,5.9
2022-10-18T18:43:01.750Z,5.7
2022-10-18T18:47:54.316Z,5.4
2022-10-18T18:52:52.554Z,5.1
2022-10-18T18:57:50.810Z,5
2022-10-18T19:02:48.803Z,4.9
2022-10-18T19:07:46.823Z,4.9
2022-10-18T19:12:44.912Z,4.7
2022-10-18T19:17:42.813Z,4.6
2022-10-18T19:22:40.938Z,4.5
2022-10-18T19:27:39.116Z,4.4
2022-10-18T19:32:37.141Z,4.3
2022-10-18T19:37:35.453Z,4.2
2022-10-18T19:42:33.752Z,4.1
2022-10-18T19:47:31.541Z,4.2
2022-10-18T19:52:30.085Z,4.2
2022-10-18T19:57:28.155Z,4.2
2022-10-18T20:02:26.237Z,4
2022-10-18T20:07:24.625Z,4
2022-10-18T20:12:22.793Z,3.9
2022-10-18T20:17:21.048Z,3.6
2022-10-18T20:22:19.392Z,3.7
2022-10-18T20:27:17.641Z,3.8
2022-10-18T20:32:15.776Z,3.7
2022-10-18T20:37:14.628Z,3.7
2022-10-18T20:42:12.585Z,3.6
2022-10-18T20:47:10.799Z,3.6
2022-10-18T20:52:09.028Z,3.6
2022-10-18T20:57:07.123Z,3.2
2022-10-18T21:02:05.109Z,3.1
2022-10-18T21:07:03.299Z,3
2022-10-18T21:12:01.421Z,2.8
2022-10-18T21:16:59.426Z,2.7
2022-10-18T21:21:57.566Z,2.7
2022-10-18T21:26:55.661Z,2.6
2022-10-18T21:31:53.775Z,2.7
2022-10-18T21:36:51.976Z,2.7
2022-10-18T21:41:50.196Z,2.7
2022-10-18T21:46:48.460Z,2.6
2022-10-18T21:51:47.004Z,2.5
2022-10-18T21:56:45.085Z,2.4
2022-10-18T22:01:43.190Z,2.4
2022-10-18T22:06:41.067Z,2.2
2022-10-18T22:11:39.176Z,2.1
2022-10-18T22:16:37.403Z,2
2022-10-18T22:21:35.448Z,1.9
2022-10-18T22:26:33.460Z,1.8
2022-10-18T22:31:31.719Z,1.8
2022-10-18T22:36:29.735Z,1.8
2022-10-18T22:41:27.724Z,1.8
2022-10-18T22:46:25.795Z,1.6
2022-10-18T22:51:24.016Z,1.6
2022-10-18T22:56:22.161Z,1.6
2022-10-18T23:01:20.154Z,1.5
2022-10-18T23:06:18.271Z,1.5
2022-10-18T23:11:16.659Z,1.4
2022-10-18T23:16:14.850Z,1.4
2022-10-18T23:21:12.996Z,1.4
2022-10-18T23:26:11.065Z,1.3
2022-10-18T23:31:09.196Z,1.2
2022-10-18T23:36:07.273Z,1
2022-10-18T23:41:05.482Z,1
2022-10-18T23:46:03.577Z,0.9
2022-10-18T23:51:01.789Z,0.8
2022-10-18T23:56:00.185Z,0.6
